Time;durP1;ratioP1;P1;durP2;ratioP2;P2;SDS_P1;SDS_P2;PMS_P1;PMS_P2;Temp;Humidity;BMP_temperature;BMP_pressure;BME280_temperature;BME280_humidity;BME280_pressure;Samples;Min_cycle;Max_cycle;Signal;HPM_P1;HPM_P2
2021/07/04 00:00:20;;;;;;;18.32;12.95;;;;;;;15.80;77.93;96886.31;1820696;78;27510;-84
2021/07/04 00:02:53;;;;;;;16.25;12.18;;;;;;;15.77;77.92;96883.27;1820966;77;25794;-85
2021/07/04 00:05:23;;;;;;;17.90;13.15;;;;;;;15.73;77.94;96882.13;1802853;78;25710;-85
2021/07/04 00:07:50;;;;;;;15.85;13.28;;;;;;;15.70;77.92;96886.18;1818911;75;26152;-84
2021/07/04 00:10:21;;;;;;;18.87;13.80;;;;;;;15.66;77.92;96882.89;1794333;77;25749;-82
2021/07/04 00:12:48;;;;;;;19.32;13.15;;;;;;;15.64;78.03;96883.67;1812113;79;27421;-83
2021/07/04 00:15:17;;;;;;;25.95;13.70;;;;;;;15.61;78.03;96886.36;1808428;78;25737;-83
2021/07/04 00:17:43;;;;;;;21.75;13.95;;;;;;;15.59;78.12;96882.25;1805411;77;26066;-83
2021/07/04 00:20:13;;;;;;;17.45;13.55;;;;;;;15.57;78.18;96883.06;1812775;77;25772;-86
2021/07/04 00:22:43;;;;;;;16.85;13.15;;;;;;;15.54;78.21;96883.00;1822060;77;25801;-84
2021/07/04 00:25:12;;;;;;;22.15;12.98;;;;;;;15.48;78.20;96876.67;1802089;77;27609;-83
2021/07/04 00:27:39;;;;;;;17.98;13.80;;;;;;;15.48;78.36;96879.39;1789812;77;26009;-87
2021/07/04 00:30:09;;;;;;;17.12;13.15;;;;;;;15.50;78.43;96878.59;1812580;77;25765;-85
2021/07/04 00:32:37;;;;;;;19.87;13.70;;;;;;;15.52;78.46;96882.43;1811981;77;25512;-84
2021/07/04 00:35:06;;;;;;;26.62;13.90;;;;;;;15.52;78.41;96879.70;1812476;77;25742;-85
2021/07/04 00:37:33;;;;;;;22.15;13.68;;;;;;;15.50;78.37;96879.14;1812678;77;27989;-84
2021/07/04 00:39:59;;;;;;;21.10;13.90;;;;;;;15.44;78.28;96879.64;1809933;79;26287;-84
2021/07/04 00:42:26;;;;;;;19.48;13.80;;;;;;;15.45;78.46;96878.56;1812338;77;25715;-83
2021/07/04 00:44:53;;;;;;;18.77;13.32;;;;;;;15.45;78.46;96878.56;1812738;77;26279;-82
2021/07/04 00:47:20;;;;;;;27.02;13.58;;;;;;;15.48;78.46;96881.28;1812896;79;25681;-87
2021/07/04 00:49:47;;;;;;;18.00;13.32;;;;;;;15.46;78.44;96870.66;1812266;79;26887;-83
2021/07/04 00:52:14;;;;;;;20.72;13.78;;;;;;;15.46;78.48;96868.48;1807459;77;25808;-86
2021/07/04 00:54:41;;;;;;;18.45;12.98;;;;;;;15.44;78.43;96868.76;1812841;79;25759;-83
2021/07/04 00:57:09;;;;;;;23.32;13.65;;;;;;;15.44;78.47;96869.30;1813004;77;25472;-85
2021/07/04 00:59:36;;;;;;;18.62;13.53;;;;;;;15.42;78.43;96873.63;1814128;77;25698;-84
2021/07/04 01:02:02;;;;;;;22.67;12.90;;;;;;;15.39;78.40;96867.33;1794015;79;27532;-86
2021/07/04 01:04:30;;;;;;;15.43;12.60;;;;;;;15.38;78.40;96869.77;1812544;77;25757;-86
2021/07/04 01:06:57;;;;;;;24.15;13.48;;;;;;;15.35;78.37;96867.54;1815653;77;25719;-84
2021/07/04 01:09:23;;;;;;;16.45;12.00;;;;;;;15.31;78.33;96858.27;1821452;77;25582;-82
2021/07/04 01:11:50;;;;;;;18.37;12.33;;;;;;;15.28;78.27;96865.57;1789273;78;25756;-84
2021/07/04 01:14:17;;;;;;;20.17;13.15;;;;;;;15.24;78.23;96868.50;1821317;77;28255;-87
2021/07/04 01:16:46;;;;;;;15.30;13.00;;;;;;;15.22;78.23;96869.28;1821326;78;25711;-83
2021/07/04 01:19:16;;;;;;;22.77;12.80;;;;;;;15.19;78.21;96871.17;1821539;77;25809;-84
2021/07/04 01:21:45;;;;;;;17.75;12.65;;;;;;;15.17;78.15;96868.42;1821242;77;26197;-85
2021/07/04 01:24:12;;;;;;;19.62;11.93;;;;;;;15.13;78.19;96872.17;1820934;78;25652;-86
2021/07/04 01:26:40;;;;;;;15.60;12.00;;;;;;;15.11;78.17;96871.60;1821283;78;27475;-88
2021/07/04 01:29:07;;;;;;;17.62;12.25;;;;;;;15.09;78.08;96871.05;1810692;76;25718;-87
2021/07/04 01:31:33;;;;;;;18.55;12.50;;;;;;;15.06;78.08;96877.81;1802379;77;25795;-87
2021/07/04 01:34:00;;;;;;;16.55;12.85;;;;;;;15.01;77.99;96863.33;1798815;77;26373;-85
2021/07/04 01:36:27;;;;;;;18.23;12.37;;;;;;;14.93;78.06;96868.67;1806279;78;25475;-87
2021/07/04 01:38:53;;;;;;;15.48;11.93;;;;;;;14.93;78.10;96868.67;1818788;77;28318;-85
2021/07/04 01:41:20;;;;;;;16.67;12.00;;;;;;;14.88;78.06;96871.84;1803186;78;25673;-84
2021/07/04 01:43:47;;;;;;;17.30;11.93;;;;;;;14.87;78.12;96872.91;1821639;77;25796;-86
2021/07/04 01:46:13;;;;;;;18.62;11.63;;;;;;;14.84;78.13;96866.64;1821314;77;25780;-88
2021/07/04 01:48:40;;;;;;;15.35;11.12;;;;;;;14.81;78.14;96868.50;1821385;77;25211;-84
2021/07/04 01:51:07;;;;;;;17.23;11.40;;;;;;;14.79;78.12;96870.11;1821354;77;27403;-86
2021/07/04 01:53:35;;;;;;;15.43;11.18;;;;;;;14.77;78.19;96863.56;1821307;77;25810;-85
2021/07/04 01:56:04;;;;;;;18.82;11.80;;;;;;;14.76;78.26;96861.09;1800721;77;25736;-87
2021/07/04 01:58:31;;;;;;;15.05;11.95;;;;;;;14.77;78.30;96863.56;1821052;77;26090;-86
2021/07/04 02:00:58;;;;;;;17.50;12.20;;;;;;;14.78;78.35;96869.81;1828599;77;25667;-86
2021/07/04 02:03:24;;;;;;;16.67;12.58;;;;;;;14.79;78.41;96879.61;1803760;77;28169;-87
2021/07/04 02:05:51;;;;;;;18.80;13.08;;;;;;;14.77;78.43;96871.71;1821439;77;25766;-86
2021/07/04 02:08:18;;;;;;;18.52;12.20;;;;;;;14.80;78.56;96865.49;1845257;75;25678;-86
2021/07/04 02:10:45;;;;;;;14.90;11.55;;;;;;;14.81;78.61;96869.86;1819228;77;25720;-86
2021/07/04 02:13:11;;;;;;;16.23;11.88;;;;;;;14.78;78.59;96873.36;1820520;78;25735;-85
2021/07/04 02:15:39;;;;;;;17.57;12.00;;;;;;;14.78;78.64;96873.36;1792934;78;28314;-84
2021/07/04 02:18:14;;;;;;;16.65;12.25;;;;;;;14.79;78.63;96874.18;1820413;77;25867;-85
2021/07/04 02:20:47;;;;;;;14.63;11.50;;;;;;;14.78;78.68;96877.97;1829031;77;25910;-85
2021/07/04 02:23:26;;;;;;;18.70;12.00;;;;;;;14.73;78.74;96877.91;1824453;77;26078;-87
2021/07/04 02:25:54;;;;;;;14.28;12.53;;;;;;;14.74;78.79;96882.25;1792228;78;25773;-86
2021/07/04 02:28:24;;;;;;;20.25;12.37;;;;;;;14.73;78.75;96882.78;1793439;78;27441;-87
2021/07/04 02:30:54;;;;;;;14.98;11.97;;;;;;;14.73;78.69;96877.91;1818627;77;25638;-85
2021/07/04 02:33:21;;;;;;;16.95;12.53;;;;;;;14.70;78.58;96879.23;1824530;77;25792;-86
2021/07/04 02:35:55;;;;;;;20.45;13.05;;;;;;;14.68;78.52;96873.22;1824471;78;26240;-86
2021/07/04 02:38:22;;;;;;;16.37;11.83;;;;;;;14.66;78.49;96875.89;1823698;77;25724;-85
2021/07/04 02:40:49;;;;;;;18.75;12.05;;;;;;;14.62;78.44;96875.56;1824429;77;27184;-87
2021/07/04 02:43:20;;;;;;;17.35;12.07;;;;;;;14.59;78.44;96876.08;1824593;77;25707;-87
2021/07/04 02:45:48;;;;;;;20.12;11.48;;;;;;;14.56;78.44;96883.36;1824652;78;25764;-88
2021/07/04 02:48:15;;;;;;;17.48;11.60;;;;;;;14.51;78.39;96887.34;1818348;77;25867;-87
2021/07/04 02:50:43;;;;;;;16.85;12.20;;;;;;;14.47;78.45;96888.94;1818229;77;25598;-87
2021/07/04 02:53:10;;;;;;;16.97;12.20;;;;;;;14.47;78.48;96889.47;1807265;78;27565;-87
2021/07/04 02:55:37;;;;;;;18.07;12.20;;;;;;;14.40;78.40;96888.27;1824517;78;25748;-86
2021/07/04 02:58:05;;;;;;;20.57;12.73;;;;;;;14.36;78.50;96885.75;1830438;77;25252;-86
2021/07/04 03:00:32;;;;;;;14.50;12.60;;;;;;;14.28;78.38;96884.78;1812813;78;25697;-88
2021/07/04 03:02:58;;;;;;;17.57;12.40;;;;;;;14.21;78.55;96880.89;1824498;77;25864;-87
2021/07/04 03:05:25;;;;;;;17.50;12.68;;;;;;;14.23;78.67;96884.72;1824230;78;28297;-86
2021/07/04 03:07:51;;;;;;;15.65;11.73;;;;;;;14.24;78.68;96889.09;1796444;78;25689;-87
2021/07/04 03:10:21;;;;;;;18.23;12.35;;;;;;;14.23;78.63;96888.80;1812870;78;25756;-87
2021/07/04 03:12:48;;;;;;;15.58;12.43;;;;;;;14.21;78.62;96885.50;1812741;78;26423;-86
2021/07/04 03:15:17;;;;;;;18.10;11.75;;;;;;;14.13;78.46;96886.71;1812756;77;25760;-84
2021/07/04 03:17:44;;;;;;;20.40;12.88;;;;;;;14.12;78.56;96889.70;1792914;77;27458;-86
2021/07/04 03:20:13;;;;;;;16.42;12.10;;;;;;;14.09;78.60;96886.94;1812719;79;25791;-86
2021/07/04 03:22:40;;;;;;;18.62;11.70;;;;;;;14.06;78.59;96884.17;1832533;77;25827;-87
2021/07/04 03:25:08;;;;;;;14.98;10.60;;;;;;;14.00;78.47;96885.70;1793761;77;25697;-87
2021/07/04 03:27:36;;;;;;;14.93;10.10;;;;;;;13.98;78.59;96890.02;1812835;77;25800;-86
2021/07/04 03:30:06;;;;;;;14.87;11.03;;;;;;;13.98;78.57;96890.02;1812705;77;27605;-86
2021/07/04 03:32:33;;;;;;;16.75;11.50;;;;;;;13.96;78.62;96892.14;1790869;79;25793;-88
2021/07/04 03:35:00;;;;;;;18.57;10.70;;;;;;;13.97;78.68;96893.80;1812827;79;25716;-87
2021/07/04 03:37:26;;;;;;;17.02;11.33;;;;;;;13.99;78.70;96895.73;1812760;79;25354;-87
2021/07/04 03:39:53;;;;;;;15.35;12.30;;;;;;;13.99;78.64;96894.38;1812779;77;25723;-86
2021/07/04 03:42:19;;;;;;;15.25;11.48;;;;;;;13.99;78.66;96896.27;1812601;79;27254;-86
2021/07/04 03:44:46;;;;;;;16.82;12.18;;;;;;;13.98;78.73;96900.05;1812640;79;25232;-87
2021/07/04 03:47:12;;;;;;;15.30;11.70;;;;;;;13.99;78.86;96899.80;1812339;77;26483;-87
2021/07/04 03:49:39;;;;;;;15.48;11.33;;;;;;;14.04;78.96;96898.52;1812730;77;25697;-87
2021/07/04 03:52:06;;;;;;;15.32;11.48;;;;;;;14.08;79.08;96899.39;1812720;79;25776;-87
2021/07/04 03:54:33;;;;;;;14.18;11.70;;;;;;;14.12;79.10;96906.81;1812849;77;27005;-87
2021/07/04 03:56:59;;;;;;;16.95;12.47;;;;;;;14.17;79.08;96912.84;1812784;79;25741;-84
2021/07/04 03:59:26;;;;;;;15.28;12.00;;;;;;;14.21;79.03;96909.39;1812702;77;25800;-86
2021/07/04 04:01:52;;;;;;;18.23;12.15;;;;;;;14.24;79.05;96910.27;1812660;77;25749;-86
2021/07/04 04:04:19;;;;;;;22.95;13.85;;;;;;;14.28;79.08;96914.11;1812703;79;25768;-87
2021/07/04 04:06:45;;;;;;;15.88;12.05;;;;;;;14.30;79.13;96911.98;1812578;79;27579;-84
2021/07/04 04:09:12;;;;;;;16.97;11.80;;;;;;;14.33;79.20;96916.10;1820084;77;25657;-86
2021/07/04 04:11:39;;;;;;;17.17;12.00;;;;;;;14.37;79.26;96918.59;1821179;77;25726;-89
2021/07/04 04:14:05;;;;;;;21.77;13.28;;;;;;;14.40;79.35;96918.96;1821327;78;25740;-87
2021/07/04 04:16:32;;;;;;;20.05;12.75;;;;;;;14.45;79.38;96910.61;1821287;78;25677;-86
2021/07/04 04:18:58;;;;;;;17.15;13.30;;;;;;;14.49;79.34;96915.28;1821496;78;27523;-86
2021/07/04 04:21:25;;;;;;;17.52;13.62;;;;;;;14.52;79.31;96916.16;1821336;77;25898;-86
2021/07/04 04:23:51;;;;;;;22.80;13.90;;;;;;;14.58;79.31;96917.89;1821325;77;26464;-85
2021/07/04 04:26:18;;;;;;;19.70;15.63;;;;;;;14.64;79.23;96919.60;1821247;77;26171;-86
2021/07/04 04:28:45;;;;;;;21.62;15.70;;;;;;;14.68;79.18;96920.76;1821216;78;25650;-85
2021/07/04 04:31:11;;;;;;;21.77;15.80;;;;;;;14.70;79.15;96915.91;1821258;77;26774;-85
2021/07/04 04:33:38;;;;;;;18.85;15.20;;;;;;;14.75;79.14;96920.03;1821370;77;25685;-85
2021/07/04 04:36:05;;;;;;;20.17;14.95;;;;;;;14.81;79.11;96922.84;1821523;77;25756;-85
2021/07/04 04:38:31;;;;;;;21.73;14.78;;;;;;;14.83;79.08;96920.16;1816914;78;25726;-85
2021/07/04 04:40:58;;;;;;;21.90;14.58;;;;;;;14.87;79.05;96921.83;1821707;77;25836;-85
2021/07/04 04:43:24;;;;;;;21.82;14.60;;;;;;;14.88;78.97;96922.11;1809998;77;28347;-85
2021/07/04 04:45:51;;;;;;;18.77;14.20;;;;;;;14.89;78.99;96915.61;1805810;77;25878;-85
2021/07/04 04:48:17;;;;;;;19.60;14.75;;;;;;;14.90;78.90;96918.61;1821548;77;25881;-84
2021/07/04 04:50:44;;;;;;;17.98;14.50;;;;;;;14.90;78.86;96918.61;1821581;78;25705;-85
2021/07/04 04:53:10;;;;;;;22.60;14.47;;;;;;;14.92;78.80;96918.66;1821476;78;25777;-84
2021/07/04 04:55:37;;;;;;;23.70;15.50;;;;;;;14.95;78.77;96915.45;1821334;77;28002;-84
2021/07/04 04:58:04;;;;;;;20.45;15.40;;;;;;;14.99;78.75;96913.03;1821498;77;25302;-84
2021/07/04 05:00:30;;;;;;;16.52;14.75;;;;;;;15.03;78.67;96915.00;1821596;77;25776;-83
2021/07/04 05:03:03;;;;;;;18.23;14.87;;;;;;;15.03;78.55;96917.72;1821540;78;26102;-86
2021/07/04 05:05:25;;;;;;;19.70;14.80;;;;;;;15.06;78.53;96915.05;1822342;77;25656;-84
2021/07/04 05:07:52;;;;;;;22.95;15.35;;;;;;;15.08;78.56;96912.91;1826735;77;28069;-85
2021/07/04 05:10:18;;;;;;;17.35;14.90;;;;;;;15.12;78.51;96914.84;1807452;78;25993;-85
2021/07/04 05:12:45;;;;;;;20.72;15.28;;;;;;;15.15;78.47;96918.96;1810214;77;25909;-84
2021/07/04 05:15:11;;;;;;;19.62;14.78;;;;;;;15.19;78.49;96918.75;1831958;77;25757;-85
2021/07/04 05:17:38;;;;;;;23.30;16.37;;;;;;;15.24;78.46;96921.52;1818037;78;25658;-85
2021/07/04 05:20:07;;;;;;;20.97;15.13;;;;;;;15.29;78.48;96920.77;1805254;78;28121;-84
2021/07/04 05:22:35;;;;;;;22.50;15.88;;;;;;;15.30;78.47;96925.14;1826311;77;25634;-86
2021/07/04 05:25:03;;;;;;;20.25;15.65;;;;;;;15.31;78.64;96918.09;1822315;77;25700;-85
2021/07/04 05:27:30;;;;;;;20.80;16.85;;;;;;;15.33;78.72;96911.05;1829446;77;25418;-85
2021/07/04 05:29:56;;;;;;;19.17;15.50;;;;;;;15.38;78.87;96908.37;1823554;77;25824;-84
2021/07/04 05:32:23;;;;;;;23.20;16.93;;;;;;;15.38;78.94;96902.39;1821928;78;28181;-84
2021/07/04 05:34:50;;;;;;;20.90;15.60;;;;;;;15.44;79.00;96897.85;1818882;77;26557;-84
2021/07/04 05:37:17;;;;;;;20.82;15.60;;;;;;;15.49;78.87;96901.44;1823853;77;26255;-85
2021/07/04 05:39:44;;;;;;;24.07;15.93;;;;;;;15.54;78.85;96895.24;1822118;78;26412;-84
2021/07/04 05:42:11;;;;;;;20.30;16.12;;;;;;;15.59;78.73;96899.39;1822010;78;25715;-85
2021/07/04 05:44:37;;;;;;;21.52;16.37;;;;;;;15.59;78.70;96894.48;1828491;77;27569;-84
2021/07/04 05:47:05;;;;;;;22.40;15.78;;;;;;;15.62;78.64;96902.97;1822010;78;26296;-83
2021/07/04 05:49:31;;;;;;;25.27;18.05;;;;;;;15.67;78.72;96900.86;1799692;78;26496;-84
2021/07/04 05:51:58;;;;;;;22.58;16.67;;;;;;;15.69;78.65;96897.34;1826950;77;26145;-83
2021/07/04 05:54:24;;;;;;;23.00;16.27;;;;;;;15.72;78.65;96900.89;1822044;78;25665;-84
2021/07/04 05:56:51;;;;;;;23.25;16.57;;;;;;;15.75;78.74;96904.47;1821720;78;27839;-85
2021/07/04 05:59:18;;;;;;;21.15;15.58;;;;;;;15.80;78.78;96907.26;1828414;77;25716;-84
2021/07/04 06:01:44;;;;;;;21.02;15.72;;;;;;;15.87;78.79;96911.94;1805098;78;25789;-83
2021/07/04 06:04:11;;;;;;;18.23;15.80;;;;;;;15.92;78.74;96912.00;1821983;78;25414;-84
2021/07/04 06:06:38;;;;;;;20.30;15.88;;;;;;;15.95;78.64;96914.73;1822024;78;25721;-83
2021/07/04 06:09:04;;;;;;;18.80;14.55;;;;;;;15.97;78.50;96913.94;1816919;78;27566;-84
2021/07/04 06:11:31;;;;;;;21.57;15.53;;;;;;;16.00;78.39;96919.70;1812790;77;25309;-84
2021/07/04 06:13:58;;;;;;;22.22;15.23;;;;;;;16.04;78.33;96918.11;1812805;77;25694;-84
2021/07/04 06:16:24;;;;;;;19.50;15.08;;;;;;;16.09;78.38;96915.42;1812716;77;26202;-83
2021/07/04 06:18:51;;;;;;;19.50;15.15;;;;;;;16.16;78.39;96913.86;1809418;79;25761;-84
2021/07/04 06:21:18;;;;;;;22.95;15.80;;;;;;;16.20;78.33;96919.88;1804334;77;28253;-84
2021/07/04 06:23:44;;;;;;;19.82;15.08;;;;;;;16.27;78.19;96914.77;1807327;77;25630;-83
2021/07/04 06:26:11;;;;;;;18.27;15.20;;;;;;;16.28;78.02;96908.25;1796861;77;25694;-83
2021/07/04 06:28:37;;;;;;;24.18;16.17;;;;;;;16.30;78.03;96906.88;1812856;77;25704;-83
2021/07/04 06:31:04;;;;;;;18.95;14.60;;;;;;;16.37;78.02;96907.51;1812600;77;25697;-83
2021/07/04 06:33:30;;;;;;;21.95;14.58;;;;;;;16.45;77.86;96903.47;1812777;79;27395;-83
2021/07/04 06:35:57;;;;;;;19.65;14.85;;;;;;;16.52;77.78;96902.19;1812560;79;25737;-83
2021/07/04 06:38:24;;;;;;;21.00;14.90;;;;;;;16.61;77.62;96902.52;1812780;77;25701;-83
2021/07/04 06:40:50;;;;;;;20.77;15.25;;;;;;;16.65;77.50;96898.22;1812672;78;26459;-85
2021/07/04 06:43:17;;;;;;;21.25;14.58;;;;;;;16.72;77.34;96897.98;1812826;77;25602;-83
2021/07/04 06:45:43;;;;;;;21.87;14.65;;;;;;;16.78;77.14;96903.76;1812673;77;27574;-82
2021/07/04 06:48:10;;;;;;;16.17;13.90;;;;;;;16.88;77.22;96905.18;1797702;79;25681;-82
2021/07/04 06:50:37;;;;;;;23.10;14.65;;;;;;;17.00;77.16;96898.16;1807706;78;25812;-82
2021/07/04 06:53:03;;;;;;;23.57;13.83;;;;;;;17.11;76.94;96903.94;1806221;78;25716;-82
2021/07/04 06:55:30;;;;;;;21.75;14.65;;;;;;;17.21;76.83;96897.99;1812839;77;25729;-82
2021/07/04 06:57:57;;;;;;;20.15;13.45;;;;;;;17.31;76.56;96897.21;1755272;79;27275;-84
2021/07/04 07:00:23;;;;;;;17.15;13.68;;;;;;;17.41;76.45;96897.78;1755106;79;25770;-83
2021/07/04 07:02:50;;;;;;;20.05;13.93;;;;;;;17.54;76.16;96888.56;1755160;79;25818;-83
2021/07/04 07:05:17;;;;;;;21.30;12.93;;;;;;;17.66;75.91;96895.72;1755039;79;25842;-82
2021/07/04 07:07:43;;;;;;;16.30;12.40;;;;;;;17.75;75.46;96886.73;1830164;77;25729;-82
2021/07/04 07:10:13;;;;;;;16.05;13.08;;;;;;;17.84;75.46;96888.41;1819205;77;27408;-82
2021/07/04 07:12:40;;;;;;;16.12;12.53;;;;;;;17.91;74.94;96888.96;1752121;81;25814;-84
2021/07/04 07:15:10;;;;;;;22.10;13.25;;;;;;;17.98;74.79;96889.53;1753863;81;26569;-82
2021/07/04 07:17:37;;;;;;;16.73;11.38;;;;;;;18.08;74.68;96891.45;1783281;78;25950;-82
2021/07/04 07:20:06;;;;;;;17.27;11.48;;;;;;;18.21;74.75;96882.19;1751594;80;25770;-82
2021/07/04 07:22:32;;;;;;;16.55;11.70;;;;;;;18.34;74.16;96883.01;1752329;81;27382;-82
2021/07/04 07:24:59;;;;;;;16.82;10.80;;;;;;;18.46;73.93;96884.09;1753991;80;26468;-82
2021/07/04 07:27:26;;;;;;;17.02;10.50;;;;;;;18.58;73.97;96884.67;1766899;78;26247;-84
2021/07/04 07:29:52;;;;;;;19.10;11.90;;;;;;;18.72;73.54;96882.73;1762896;81;25662;-82
2021/07/04 07:32:19;;;;;;;19.87;11.78;;;;;;;18.83;73.53;96886.55;1762800;79;25748;-82
2021/07/04 07:34:45;;;;;;;16.25;11.55;;;;;;;18.97;73.52;96893.05;1762759;81;27445;-82
2021/07/04 07:37:13;;;;;;;16.10;10.45;;;;;;;19.08;72.97;96887.83;1762665;79;26076;-82
2021/07/04 07:39:40;;;;;;;14.80;10.72;;;;;;;19.17;72.47;96884.54;1769522;80;26387;-82
2021/07/04 07:42:06;;;;;;;14.38;9.78;;;;;;;19.28;72.46;96888.88;1754073;80;26029;-82
2021/07/04 07:44:33;;;;;;;16.37;10.23;;;;;;;19.41;72.43;96888.28;1754326;80;25711;-85
2021/07/04 07:47:00;;;;;;;15.38;10.32;;;;;;;19.57;72.39;96879.45;1753933;81;27515;-83
2021/07/04 07:49:26;;;;;;;15.60;10.20;;;;;;;19.72;71.91;96879.39;1793326;78;25741;-83
2021/07/04 07:51:54;;;;;;;15.85;9.80;;;;;;;19.84;71.65;96874.94;1763514;79;25312;-87
2021/07/04 07:54:21;;;;;;;12.98;9.48;;;;;;;19.96;71.31;96869.93;1762594;81;25771;-82
2021/07/04 07:56:49;;;;;;;13.75;8.75;;;;;;;20.09;70.73;96877.52;1749857;81;25782;-83
2021/07/04 07:59:16;;;;;;;17.90;9.13;;;;;;;20.25;70.41;96879.05;1747104;81;27223;-83
2021/07/04 08:01:43;;;;;;;14.65;8.85;;;;;;;20.41;69.55;96876.47;1754015;80;25767;-82
2021/07/04 08:04:10;;;;;;;13.35;8.45;;;;;;;20.67;69.44;96886.66;1752041;81;36200;-90
2021/07/04 08:06:37;;;;;;;12.85;7.90;;;;;;;21.02;68.65;96877.26;1753662;80;25713;-87
2021/07/04 08:09:04;;;;;;;9.55;7.70;;;;;;;21.45;68.20;96874.61;1741850;80;25312;-82
2021/07/04 08:11:31;;;;;;;9.63;7.90;;;;;;;21.87;67.53;96867.72;1751683;80;27863;-82
2021/07/04 08:13:58;;;;;;;11.73;7.97;;;;;;;22.26;66.88;96868.81;1751583;81;25845;-83
2021/07/04 08:16:24;;;;;;;8.33;7.12;;;;;;;22.58;66.33;96862.50;1752041;81;25715;-86
2021/07/04 08:18:52;;;;;;;10.05;7.28;;;;;;;22.80;65.56;96861.89;1752334;80;25682;-82
2021/07/04 08:21:18;;;;;;;11.57;7.55;;;;;;;23.13;64.61;96858.52;1752200;81;25749;-83
2021/07/04 08:23:45;;;;;;;11.30;6.80;;;;;;;23.49;63.23;96860.55;1733295;80;27507;-82
2021/07/04 08:26:12;;;;;;;10.32;6.33;;;;;;;23.72;63.16;96860.91;1752183;80;25751;-82
2021/07/04 08:28:38;;;;;;;10.63;6.78;;;;;;;24.00;62.60;96858.36;1752368;81;25671;-82
2021/07/04 08:31:05;;;;;;;10.43;6.30;;;;;;;24.38;61.76;96855.30;1756965;80;25748;-83
2021/07/04 08:33:32;;;;;;;9.43;6.15;;;;;;;24.61;61.24;96852.78;1752384;80;25762;-84
2021/07/04 08:35:58;;;;;;;9.85;6.50;;;;;;;24.73;60.90;96850.81;1752440;80;28396;-83
2021/07/04 08:38:25;;;;;;;11.20;6.60;;;;;;;24.75;60.22;96850.73;1752174;80;25946;-84
2021/07/04 08:40:53;;;;;;;9.40;6.75;;;;;;;25.11;59.84;96855.36;1752410;81;25297;-91
2021/07/04 08:43:31;;;;;;;8.83;5.83;;;;;;;25.55;58.84;96857.70;1751238;80;25907;-85
2021/07/04 08:45:58;;;;;;;11.18;5.65;;;;;;;25.88;58.33;96861.70;1750609;80;25658;-83
2021/07/04 08:48:26;;;;;;;5.85;5.25;;;;;;;26.13;57.78;96849.86;1764240;81;27567;-86
2021/07/04 08:50:53;;;;;;;13.35;8.38;;;;;;;26.43;57.01;96848.67;1750394;80;25706;-84
2021/07/04 08:53:20;;;;;;;8.93;5.28;;;;;;;26.79;55.88;96844.14;1758296;81;25737;-84
2021/07/04 08:55:47;;;;;;;6.58;5.50;;;;;;;27.10;55.04;96848.06;1758219;81;25691;-83
2021/07/04 08:58:21;;;;;;;6.65;5.12;;;;;;;27.20;54.62;96835.22;1762777;80;25231;-83
2021/07/04 09:01:15;;;;;;;7.47;4.75;;;;;;;27.41;53.65;96839.47;1741631;80;27519;-83
2021/07/04 09:03:47;;;;;;;6.92;5.37;;;;;;;27.39;52.95;96843.96;1758150;81;26382;-84
2021/07/04 09:06:15;;;;;;;8.80;5.03;;;;;;;27.37;53.18;96837.12;1757766;81;25532;-83
2021/07/04 09:08:42;;;;;;;6.65;4.53;;;;;;;27.58;52.88;96836.63;1758518;80;25658;-83
2021/07/04 09:11:16;;;;;;;6.85;4.85;;;;;;;27.63;52.19;96837.02;1758323;80;25768;-87
2021/07/04 09:13:47;;;;;;;10.72;5.40;;;;;;;27.83;51.35;96833.45;1758498;80;28324;-85
2021/07/04 09:16:19;;;;;;;5.43;4.93;;;;;;;27.72;51.15;96833.61;1758424;80;25725;-85
2021/07/04 09:19:00;;;;;;;6.55;5.12;;;;;;;28.03;51.11;96836.81;1812859;77;25774;-86
2021/07/04 09:21:27;;;;;;;5.62;5.12;;;;;;;28.43;50.19;96831.63;1744202;80;26515;-86
2021/07/04 09:23:54;;;;;;;5.67;4.85;;;;;;;28.71;49.44;96829.08;1743295;81;26501;-87
2021/07/04 09:26:42;;;;;;;6.55;4.62;;;;;;;28.78;49.47;96822.95;1743246;80;27450;-85
2021/07/04 09:29:10;;;;;;;8.85;4.97;;;;;;;28.89;48.92;96825.55;1743183;80;25771;-85
2021/07/04 09:31:40;;;;;;;10.78;4.53;;;;;;;28.66;48.58;96825.11;1743414;81;26452;-86
2021/07/04 09:34:11;;;;;;;4.90;4.40;;;;;;;28.70;48.21;96826.64;1743129;81;26314;-85
2021/07/04 09:36:40;;;;;;;6.17;4.83;;;;;;;28.76;47.98;96823.28;1743357;81;25790;-86
2021/07/04 09:39:20;;;;;;;5.65;4.58;;;;;;;28.99;47.42;96823.72;1743091;81;27406;-88
2021/07/04 09:42:09;;;;;;;7.12;4.62;;;;;;;29.13;46.84;96819.23;1743189;80;25865;-87
2021/07/04 09:44:37;;;;;;;5.17;4.12;;;;;;;29.30;46.42;96813.47;1742313;82;25974;-86
2021/07/04 09:47:19;;;;;;;7.25;5.25;;;;;;;29.39;44.98;96807.23;1723829;82;25812;-86
2021/07/04 09:49:47;;;;;;;;;;;;;;;29.19;44.65;96800.61;1745871;81;25545;-87
2021/07/04 09:52:22;;;;;;;6.40;4.70;;;;;;;29.08;43.72;96799.44;1730148;81;27630;-88
2021/07/04 09:55:04;;;;;;;5.78;4.75;;;;;;;29.22;45.19;96801.28;1730086;81;25741;-85
2021/07/04 09:57:57;;;;;;;5.33;4.47;;;;;;;29.30;44.64;96795.41;1738235;80;25782;-86
2021/07/04 10:00:26;;;;;;;;;;;;;;;29.15;44.81;96789.13;1813989;79;25748;-85
2021/07/04 10:03:18;;;;;;;5.53;4.67;;;;;;;29.29;43.18;96791.81;1812619;77;25670;-85
2021/07/04 10:05:59;;;;;;;5.53;4.90;;;;;;;29.29;44.24;96789.61;1791738;79;27939;-85
2021/07/04 10:08:33;;;;;;;6.00;4.85;;;;;;;29.35;43.60;96793.77;1812856;79;25714;-85
2021/07/04 10:11:04;;;;;;;6.25;4.70;;;;;;;29.12;43.82;96789.23;1819187;78;25966;-89
2021/07/04 10:13:33;;;;;;;6.20;4.80;;;;;;;29.21;43.54;96785.80;1821298;77;25737;-86
2021/07/04 10:16:00;;;;;;;5.40;4.90;;;;;;;29.03;43.44;96783.80;1821272;78;25681;-86
2021/07/04 10:18:27;;;;;;;5.90;4.90;;;;;;;28.85;43.16;96776.84;1803515;77;28347;-84
2021/07/04 10:20:55;;;;;;;6.12;4.83;;;;;;;28.68;43.63;96782.55;1821411;77;25638;-91
2021/07/04 10:23:25;;;;;;;6.80;4.90;;;;;;;28.50;43.83;96772.80;1821304;77;25249;-86
2021/07/04 10:25:55;;;;;;;6.35;4.35;;;;;;;28.60;44.03;96769.58;1821449;78;25684;-86
2021/07/04 10:28:29;;;;;;;5.08;4.40;;;;;;;28.73;44.01;96774.01;1821397;77;27020;-85
2021/07/04 10:30:59;;;;;;;7.03;4.37;;;;;;;28.71;43.39;96764.39;1795742;77;27631;-88
2021/07/04 10:33:35;;;;;;;6.12;4.72;;;;;;;28.78;43.41;96757.14;1791773;78;25822;-91
2021/07/04 10:36:20;;;;;;;5.83;4.53;;;;;;;28.77;43.16;96761.03;1821523;77;25627;-86
2021/07/04 10:38:57;;;;;;;5.15;4.60;;;;;;;28.96;42.61;96752.20;1821373;78;25297;-86
2021/07/04 10:41:34;;;;;;;7.37;5.10;;;;;;;29.01;42.29;96745.82;1821463;77;25834;-84
2021/07/04 10:44:12;;;;;;;5.40;4.87;;;;;;;29.04;41.89;96742.94;1820611;77;28095;-85
2021/07/04 10:46:48;;;;;;;5.80;4.90;;;;;;;29.16;42.70;96740.73;1806616;77;25697;-90
2021/07/04 10:49:28;;;;;;;5.50;4.97;;;;;;;29.27;42.45;96738.53;1816950;77;25725;-84
2021/07/04 10:51:59;;;;;;;5.55;5.05;;;;;;;29.34;42.05;96744.91;1821143;77;25642;-85
2021/07/04 10:54:50;;;;;;;5.87;4.70;;;;;;;29.29;41.53;96743.75;1816808;77;25774;-84
2021/07/04 10:57:29;;;;;;;7.22;4.67;;;;;;;29.29;42.23;96736.80;1789851;78;28182;-82
2021/07/04 11:00:07;;;;;;;5.40;4.90;;;;;;;29.41;41.74;96737.39;1821029;77;25954;-88
2021/07/04 11:02:54;;;;;;;7.05;4.55;;;;;;;29.32;41.69;96731.94;1826389;77;25240;-84
2021/07/04 11:05:41;;;;;;;5.08;4.62;;;;;;;29.36;41.59;96737.82;1821303;78;25657;-85
2021/07/04 11:08:11;;;;;;;5.47;4.75;;;;;;;29.40;41.26;96733.80;1808648;78;25672;-84
2021/07/04 11:11:00;;;;;;;4.72;4.33;;;;;;;29.33;41.44;96729.39;1816816;77;27499;-86
2021/07/04 11:13:33;;;;;;;5.05;4.50;;;;;;;29.27;41.59;96730.77;1791761;79;25632;-88
2021/07/04 11:16:16;;;;;;;4.50;4.10;;;;;;;29.27;41.02;96726.60;1808093;77;25263;-87
2021/07/04 11:18:56;;;;;;;5.22;4.62;;;;;;;29.32;40.65;96723.59;1794165;77;25763;-87
2021/07/04 11:21:46;;;;;;;7.08;4.30;;;;;;;29.14;40.24;96721.63;1812848;79;25719;-89
2021/07/04 11:24:25;;;;;;;5.22;4.58;;;;;;;28.85;40.29;96721.29;1811903;77;27294;-86
2021/07/04 11:27:24;;;;;;;6.87;5.05;;;;;;;28.61;40.28;96712.89;1812720;77;26419;-84
2021/07/04 11:30:23;;;;;;;5.60;5.10;;;;;;;28.40;40.30;96721.84;1812336;77;25724;-83